Time;durP1;ratioP1;P1;durP2;ratioP2;P2;SDS_P1;SDS_P2;PMS_P1;PMS_P2;Temp;Humidity;BMP_temperature;BMP_pressure;BME280_temperature;BME280_humidity;BME280_pressure;Samples;Min_cycle;Max_cycle;Signal;HPM_P1;HPM_P2
2024/01/30 00:00:35;;;;;;;18.05;12.43;;;;;;;;;;5026166;28;20224;-73
2024/01/30 00:03:01;;;;;;;21.25;12.32;;;;;;;;;;5043152;28;20213;-73
2024/01/30 00:05:26;;;;;;;18.40;11.48;;;;;;;;;;5044196;28;20193;-74
2024/01/30 00:07:52;;;;;;;18.95;11.82;;;;;;;;;;5038174;28;20507;-73
2024/01/30 00:10:18;;;;;;;18.60;11.80;;;;;;;;;;5040969;28;20664;-73
2024/01/30 00:12:43;;;;;;;15.80;11.32;;;;;;;;;;5038336;28;20228;-72
2024/01/30 00:15:09;;;;;;;19.60;10.38;;;;;;;;;;5041110;28;20297;-72
2024/01/30 00:17:36;;;;;;;19.90;11.75;;;;;;;;;;5031519;28;20221;-72
2024/01/30 00:20:05;;;;;;;21.98;11.95;;;;;;;;;;5038100;28;20453;-72
2024/01/30 00:22:33;;;;;;;16.55;10.45;;;;;;;;;;5040087;28;20194;-72
2024/01/30 00:24:59;;;;;;;16.42;10.40;;;;;;;;;;5046268;28;20208;-73
2024/01/30 00:27:26;;;;;;;17.10;10.82;;;;;;;;;;5046229;28;20661;-73
2024/01/30 00:29:51;;;;;;;17.50;11.60;;;;;;;;;;5030107;28;20190;-72
2024/01/30 00:32:19;;;;;;;15.88;10.88;;;;;;;;;;5029873;28;20294;-72
2024/01/30 00:34:44;;;;;;;17.60;11.85;;;;;;;;;;5033263;28;20714;-73
2024/01/30 00:37:10;;;;;;;17.50;11.10;;;;;;;;;;5038510;28;20197;-73
2024/01/30 00:39:35;;;;;;;17.80;10.93;;;;;;;;;;5034914;28;20215;-73
2024/01/30 00:42:00;;;;;;;17.48;11.02;;;;;;;;;;5035511;28;20177;-73
2024/01/30 00:44:26;;;;;;;17.45;11.07;;;;;;;;;;5035623;28;20521;-73
2024/01/30 00:46:51;;;;;;;15.60;10.38;;;;;;;;;;5041152;28;20186;-73
2024/01/30 00:49:17;;;;;;;14.45;10.50;;;;;;;;;;5049156;28;20660;-73
2024/01/30 00:51:42;;;;;;;13.70;10.93;;;;;;;;;;5034287;28;20256;-73
2024/01/30 00:54:08;;;;;;;19.48;11.02;;;;;;;;;;5041745;28;20754;-72
2024/01/30 00:56:33;;;;;;;19.48;11.13;;;;;;;;;;5037830;28;20244;-72
2024/01/30 00:58:59;;;;;;;14.73;10.38;;;;;;;;;;5030153;28;20273;-73
2024/01/30 01:01:24;;;;;;;18.45;10.95;;;;;;;;;;5032554;28;20198;-72
2024/01/30 01:03:50;;;;;;;15.27;11.27;;;;;;;;;;5049123;28;20174;-73
2024/01/30 01:06:15;;;;;;;19.02;11.13;;;;;;;;;;5054166;28;20188;-73
2024/01/30 01:08:41;;;;;;;18.30;11.73;;;;;;;;;;5015840;28;20229;-72
2024/01/30 01:11:06;;;;;;;17.88;11.13;;;;;;;;;;5030386;28;20542;-72
2024/01/30 01:13:32;;;;;;;17.38;11.23;;;;;;;;;;5031564;28;20220;-73
2024/01/30 01:15:57;;;;;;;19.15;10.93;;;;;;;;;;5040703;28;20627;-73
2024/01/30 01:18:23;;;;;;;19.90;10.55;;;;;;;;;;5040783;28;20234;-72
2024/01/30 01:20:49;;;;;;;15.73;11.00;;;;;;;;;;5028640;28;20208;-72
2024/01/30 01:23:14;;;;;;;17.13;11.40;;;;;;;;;;5035731;28;20194;-72
2024/01/30 01:25:39;;;;;;;19.77;11.98;;;;;;;;;;5030561;28;20208;-72
2024/01/30 01:28:05;;;;;;;18.63;11.20;;;;;;;;;;5045163;28;20211;-72
2024/01/30 01:30:31;;;;;;;17.67;12.00;;;;;;;;;;5037387;28;20196;-72
2024/01/30 01:32:57;;;;;;;17.15;11.25;;;;;;;;;;5028237;28;20553;-72
2024/01/30 01:35:24;;;;;;;17.52;11.63;;;;;;;;;;5029084;28;20300;-73
2024/01/30 01:37:58;;;;;;;18.77;11.68;;;;;;;;;;5037125;28;20269;-73
2024/01/30 01:40:24;;;;;;;19.33;12.23;;;;;;;;;;5034017;28;20226;-73
2024/01/30 01:42:52;;;;;;;18.08;11.40;;;;;;;;;;5029960;28;20174;-72
2024/01/30 01:45:17;;;;;;;16.55;11.85;;;;;;;;;;5030818;28;20194;-72
2024/01/30 01:47:45;;;;;;;21.27;12.32;;;;;;;;;;5042729;28;20645;-73
2024/01/30 01:50:18;;;;;;;18.77;11.90;;;;;;;;;;5045259;28;20225;-73
2024/01/30 01:52:43;;;;;;;18.13;12.27;;;;;;;;;;5040576;28;20221;-73
2024/01/30 01:55:10;;;;;;;19.75;11.63;;;;;;;;;;5029530;28;20653;-73
2024/01/30 01:57:36;;;;;;;22.90;12.20;;;;;;;;;;5034436;28;20194;-73
2024/01/30 02:00:02;;;;;;;19.90;12.48;;;;;;;;;;5032324;28;20181;-73
2024/01/30 02:02:30;;;;;;;22.63;12.10;;;;;;;;;;5035841;28;20182;-73
2024/01/30 02:04:57;;;;;;;18.58;11.57;;;;;;;;;;5040139;28;20264;-73
2024/01/30 02:07:24;;;;;;;18.77;12.25;;;;;;;;;;5034036;28;20214;-73
2024/01/30 02:09:49;;;;;;;18.40;12.52;;;;;;;;;;5053552;28;20573;-73
2024/01/30 02:12:14;;;;;;;19.67;12.65;;;;;;;;;;5041431;28;20206;-73
2024/01/30 02:14:47;;;;;;;21.23;12.25;;;;;;;;;;5033462;28;20194;-73
2024/01/30 02:17:13;;;;;;;18.15;11.73;;;;;;;;;;5041544;28;20233;-73
2024/01/30 02:19:39;;;;;;;22.15;13.00;;;;;;;;;;5049635;28;20314;-73
2024/01/30 02:22:05;;;;;;;19.10;12.25;;;;;;;;;;5031544;28;20677;-73
2024/01/30 02:24:30;;;;;;;19.98;12.40;;;;;;;;;;5033194;28;20272;-73
2024/01/30 02:26:56;;;;;;;20.23;12.82;;;;;;;;;;5037178;28;20193;-73
2024/01/30 02:29:21;;;;;;;17.52;11.70;;;;;;;;;;5036408;28;20602;-73
2024/01/30 02:31:47;;;;;;;20.38;12.52;;;;;;;;;;5041655;28;20653;-73
2024/01/30 02:34:12;;;;;;;21.73;12.93;;;;;;;;;;5038323;28;20197;-73
2024/01/30 02:36:37;;;;;;;19.40;12.13;;;;;;;;;;5046670;28;20676;-74
2024/01/30 02:39:03;;;;;;;21.00;12.68;;;;;;;;;;5049538;28;20319;-74
2024/01/30 02:41:29;;;;;;;22.02;12.75;;;;;;;;;;5047186;28;20272;-74
2024/01/30 02:43:54;;;;;;;18.70;12.97;;;;;;;;;;5050605;28;20186;-74
2024/01/30 02:46:20;;;;;;;18.97;12.87;;;;;;;;;;5040909;28;20659;-74
2024/01/30 02:48:45;;;;;;;23.93;13.10;;;;;;;;;;5038902;28;20723;-74
2024/01/30 02:51:11;;;;;;;22.55;13.60;;;;;;;;;;5050240;28;20219;-74
2024/01/30 02:53:36;;;;;;;19.33;12.75;;;;;;;;;;5040671;28;20355;-74
2024/01/30 02:56:05;;;;;;;22.13;14.02;;;;;;;;;;5039403;28;20279;-74
2024/01/30 02:58:31;;;;;;;17.00;12.70;;;;;;;;;;5037060;28;20298;-74
2024/01/30 03:00:56;;;;;;;19.15;13.10;;;;;;;;;;5041180;28;20276;-74
2024/01/30 03:03:22;;;;;;;23.27;13.60;;;;;;;;;;5045638;28;20190;-74
2024/01/30 03:05:47;;;;;;;20.92;13.85;;;;;;;;;;5034442;28;20193;-74
2024/01/30 03:08:13;;;;;;;19.70;13.27;;;;;;;;;;5048021;28;20264;-74
2024/01/30 03:10:38;;;;;;;22.13;13.80;;;;;;;;;;5047893;28;20279;-74
2024/01/30 03:13:04;;;;;;;25.77;14.10;;;;;;;;;;5049703;28;20563;-74
2024/01/30 03:15:29;;;;;;;23.23;14.73;;;;;;;;;;5049791;28;20189;-74
2024/01/30 03:17:54;;;;;;;21.88;14.25;;;;;;;;;;5032854;28;20237;-74
2024/01/30 03:20:20;;;;;;;23.67;14.43;;;;;;;;;;5044707;28;20305;-74
2024/01/30 03:22:45;;;;;;;22.10;14.15;;;;;;;;;;5055422;28;20177;-73
2024/01/30 03:25:12;;;;;;;27.30;14.83;;;;;;;;;;5037351;28;20268;-73
2024/01/30 03:27:37;;;;;;;22.87;14.87;;;;;;;;;;5050819;28;20221;-73
2024/01/30 03:30:03;;;;;;;20.58;13.77;;;;;;;;;;5045029;28;20205;-73
2024/01/30 03:32:29;;;;;;;25.85;14.70;;;;;;;;;;5044076;28;20681;-73
2024/01/30 03:34:54;;;;;;;23.45;14.10;;;;;;;;;;5048772;28;20193;-73
2024/01/30 03:37:20;;;;;;;23.40;14.07;;;;;;;;;;5040902;28;20303;-74
2024/01/30 03:39:45;;;;;;;22.13;13.95;;;;;;;;;;5045907;28;20193;-73
2024/01/30 03:42:10;;;;;;;26.25;14.15;;;;;;;;;;5047947;28;20555;-73
2024/01/30 03:44:36;;;;;;;24.15;14.43;;;;;;;;;;5040757;28;20201;-73
2024/01/30 03:47:01;;;;;;;19.25;13.13;;;;;;;;;;5041234;28;20185;-73
2024/01/30 03:49:27;;;;;;;23.67;13.63;;;;;;;;;;5039202;28;20248;-73
2024/01/30 03:51:52;;;;;;;19.33;12.75;;;;;;;;;;5035818;28;20189;-73
2024/01/30 03:54:17;;;;;;;21.00;12.73;;;;;;;;;;5051294;28;20223;-73
2024/01/30 03:56:43;;;;;;;25.60;13.82;;;;;;;;;;5034937;28;20593;-73
2024/01/30 03:59:08;;;;;;;23.48;12.63;;;;;;;;;;5038982;28;20190;-73
2024/01/30 04:01:34;;;;;;;22.60;13.67;;;;;;;;;;5035896;28;20186;-74
2024/01/30 04:03:59;;;;;;;20.70;13.82;;;;;;;;;;5049296;28;20190;-74
2024/01/30 04:06:24;;;;;;;24.30;13.70;;;;;;;;;;5044501;28;20254;-73
2024/01/30 04:08:50;;;;;;;22.98;13.20;;;;;;;;;;5053918;28;20192;-72
2024/01/30 04:11:18;;;;;;;24.42;14.65;;;;;;;;;;5033796;28;20336;-72
2024/01/30 04:13:44;;;;;;;28.95;15.73;;;;;;;;;;5037909;28;20228;-72
2024/01/30 04:16:20;;;;;;;27.57;13.87;;;;;;;;;;5034371;28;20656;-72
2024/01/30 04:18:46;;;;;;;22.00;14.17;;;;;;;;;;5042839;28;20327;-73
2024/01/30 04:21:11;;;;;;;24.55;13.93;;;;;;;;;;5044759;28;20455;-73
2024/01/30 04:23:37;;;;;;;21.67;14.03;;;;;;;;;;5015806;28;20200;-73
2024/01/30 04:26:02;;;;;;;23.15;14.00;;;;;;;;;;5042355;28;20210;-73
2024/01/30 04:28:28;;;;;;;24.40;14.05;;;;;;;;;;5029297;28;20190;-73
2024/01/30 04:30:54;;;;;;;25.63;14.67;;;;;;;;;;5042130;28;20444;-72
2024/01/30 04:33:19;;;;;;;28.65;14.07;;;;;;;;;;5030496;28;20214;-72
2024/01/30 04:35:45;;;;;;;25.73;14.77;;;;;;;;;;5042961;28;20240;-72
2024/01/30 04:38:10;;;;;;;24.27;14.77;;;;;;;;;;5030088;28;20194;-72
2024/01/30 04:40:35;;;;;;;25.38;14.25;;;;;;;;;;5037836;28;20389;-74
2024/01/30 04:43:01;;;;;;;22.30;14.27;;;;;;;;;;5039129;28;20672;-72
2024/01/30 04:45:26;;;;;;;25.93;14.90;;;;;;;;;;5041002;28;20194;-73
2024/01/30 04:47:52;;;;;;;22.27;14.93;;;;;;;;;;5030668;28;20251;-73
2024/01/30 04:50:18;;;;;;;24.75;14.77;;;;;;;;;;5033632;28;20216;-73
2024/01/30 04:52:43;;;;;;;25.95;15.02;;;;;;;;;;5038118;28;20202;-72
2024/01/30 04:55:09;;;;;;;25.67;15.85;;;;;;;;;;5041248;28;20200;-72
2024/01/30 04:57:34;;;;;;;28.23;15.27;;;;;;;;;;5038016;28;20713;-72
2024/01/30 05:00:00;;;;;;;23.45;15.68;;;;;;;;;;5029412;28;20192;-72
2024/01/30 05:02:25;;;;;;;21.15;14.25;;;;;;;;;;5040191;28;20693;-72
2024/01/30 05:04:51;;;;;;;22.25;14.73;;;;;;;;;;5045269;28;20272;-72
2024/01/30 05:07:16;;;;;;;24.92;14.10;;;;;;;;;;5037593;28;20204;-73
2024/01/30 05:09:41;;;;;;;22.77;14.90;;;;;;;;;;5039855;28;20654;-73
2024/01/30 05:12:07;;;;;;;26.10;15.27;;;;;;;;;;5043638;28;20195;-72
2024/01/30 05:14:32;;;;;;;25.00;14.73;;;;;;;;;;5030093;28;20185;-72
2024/01/30 05:16:59;;;;;;;23.33;14.60;;;;;;;;;;5048562;28;20218;-72
2024/01/30 05:19:25;;;;;;;24.52;14.48;;;;;;;;;;5044288;28;20701;-73
2024/01/30 05:21:50;;;;;;;24.47;14.40;;;;;;;;;;5029548;28;20196;-72
2024/01/30 05:24:16;;;;;;;22.73;14.60;;;;;;;;;;5043698;28;20178;-72
2024/01/30 05:26:41;;;;;;;21.80;14.63;;;;;;;;;;5041951;28;20189;-72
2024/01/30 05:29:07;;;;;;;21.58;15.02;;;;;;;;;;5048490;28;20212;-72
2024/01/30 05:31:34;;;;;;;22.42;14.15;;;;;;;;;;5038605;28;20182;-72
2024/01/30 05:33:59;;;;;;;23.13;14.52;;;;;;;;;;5034455;28;20290;-72
2024/01/30 05:36:25;;;;;;;20.92;13.85;;;;;;;;;;5041229;28;20523;-72
2024/01/30 05:38:50;;;;;;;20.60;13.75;;;;;;;;;;5042462;28;20190;-73
2024/01/30 05:41:16;;;;;;;20.33;13.32;;;;;;;;;;5029701;28;20219;-72
2024/01/30 05:43:42;;;;;;;17.33;12.77;;;;;;;;;;5047315;28;20390;-73
2024/01/30 05:46:07;;;;;;;19.80;12.70;;;;;;;;;;5038435;28;20193;-73
2024/01/30 05:48:35;;;;;;;22.05;12.90;;;;;;;;;;5036983;28;20196;-72
2024/01/30 05:51:00;;;;;;;19.77;12.38;;;;;;;;;;5049606;28;20181;-73
2024/01/30 05:53:26;;;;;;;22.70;13.55;;;;;;;;;;5044188;28;20231;-73
2024/01/30 05:55:51;;;;;;;18.48;13.07;;;;;;;;;;5035292;28;20200;-73
2024/01/30 05:58:17;;;;;;;18.50;13.00;;;;;;;;;;5038550;28;20277;-73
2024/01/30 06:00:42;;;;;;;20.45;13.63;;;;;;;;;;5043909;28;20634;-73
2024/01/30 06:03:07;;;;;;;18.55;12.57;;;;;;;;;;5040994;28;20668;-73
2024/01/30 06:05:33;;;;;;;20.27;12.80;;;;;;;;;;5029427;28;20189;-71
2024/01/30 06:07:58;;;;;;;18.92;12.13;;;;;;;;;;5033885;28;20194;-72
2024/01/30 06:10:24;;;;;;;20.40;12.88;;;;;;;;;;5039068;28;20190;-72
2024/01/30 06:12:49;;;;;;;16.92;12.40;;;;;;;;;;5039485;28;20287;-72
2024/01/30 06:15:15;;;;;;;21.00;12.43;;;;;;;;;;5030753;28;20263;-72
2024/01/30 06:17:40;;;;;;;19.90;12.35;;;;;;;;;;5037200;28;20232;-72
2024/01/30 06:20:06;;;;;;;18.05;12.05;;;;;;;;;;5037732;28;20652;-73
2024/01/30 06:22:31;;;;;;;19.40;11.77;;;;;;;;;;5033451;28;20230;-72
2024/01/30 06:24:57;;;;;;;19.25;13.00;;;;;;;;;;5035723;28;20189;-73
2024/01/30 06:27:22;;;;;;;18.17;12.05;;;;;;;;;;5038991;28;20277;-73
2024/01/30 06:29:48;;;;;;;20.30;12.10;;;;;;;;;;5041847;28;20185;-74
2024/01/30 06:32:13;;;;;;;16.38;11.55;;;;;;;;;;5040662;28;20194;-73
2024/01/30 06:34:40;;;;;;;15.45;10.88;;;;;;;;;;5039632;28;20178;-74
2024/01/30 06:37:05;;;;;;;16.38;11.98;;;;;;;;;;5026216;28;20194;-73
2024/01/30 06:39:31;;;;;;;19.42;11.38;;;;;;;;;;5048969;28;20246;-74
2024/01/30 06:41:56;;;;;;;18.85;11.73;;;;;;;;;;5032187;28;20197;-75
2024/01/30 06:44:22;;;;;;;15.18;10.50;;;;;;;;;;5028405;28;20571;-73
2024/01/30 06:46:47;;;;;;;16.65;12.10;;;;;;;;;;5036754;28;20186;-73
2024/01/30 06:49:13;;;;;;;15.60;10.23;;;;;;;;;;5036627;28;20200;-73
2024/01/30 06:51:38;;;;;;;15.13;10.27;;;;;;;;;;5048320;28;20190;-73
2024/01/30 06:54:04;;;;;;;18.75;10.63;;;;;;;;;;5046084;28;20197;-73
2024/01/30 06:56:29;;;;;;;15.95;10.52;;;;;;;;;;5045056;28;20196;-74
2024/01/30 06:58:55;;;;;;;14.93;10.65;;;;;;;;;;5040766;28;20261;-73
2024/01/30 07:01:20;;;;;;;15.00;10.20;;;;;;;;;;5039082;28;20271;-73
2024/01/30 07:03:46;;;;;;;19.15;10.77;;;;;;;;;;5035328;28;20179;-73
2024/01/30 07:06:12;;;;;;;14.98;10.07;;;;;;;;;;5042466;28;20298;-73
2024/01/30 07:08:40;;;;;;;12.73;9.50;;;;;;;;;;5044217;28;20208;-73
2024/01/30 07:11:06;;;;;;;13.77;10.80;;;;;;;;;;5031699;28;20551;-74
2024/01/30 07:13:32;;;;;;;15.32;9.93;;;;;;;;;;5032361;28;20312;-73
2024/01/30 07:15:58;;;;;;;15.75;10.15;;;;;;;;;;5042537;28;20266;-73
2024/01/30 07:18:23;;;;;;;16.88;9.60;;;;;;;;;;5038029;28;20640;-73
2024/01/30 07:20:49;;;;;;;14.40;9.88;;;;;;;;;;5043610;28;20584;-73
2024/01/30 07:23:17;;;;;;;15.43;9.75;;;;;;;;;;5029827;28;20236;-73
2024/01/30 07:25:48;;;;;;;12.93;9.77;;;;;;;;;;5037669;28;20213;-73
2024/01/30 07:28:16;;;;;;;13.05;9.57;;;;;;;;;;5047709;28;20200;-74
2024/01/30 07:30:42;;;;;;;12.70;9.82;;;;;;;;;;5041120;28;20185;-74
2024/01/30 07:33:08;;;;;;;16.10;9.93;;;;;;;;;;5032867;28;20218;-75
2024/01/30 07:35:34;;;;;;;19.25;10.32;;;;;;;;;;5051346;28;20690;-75
2024/01/30 07:37:59;;;;;;;16.10;9.77;;;;;;;;;;5039579;28;20217;-74
2024/01/30 07:40:25;;;;;;;14.93;10.68;;;;;;;;;;5039902;28;20197;-73
2024/01/30 07:42:50;;;;;;;17.95;9.60;;;;;;;;;;5027971;28;20248;-73
2024/01/30 07:45:16;;;;;;;14.73;9.80;;;;;;;;;;5042582;28;20190;-73
2024/01/30 07:47:42;;;;;;;18.02;10.07;;;;;;;;;;5037935;28;20200;-73
2024/01/30 07:50:09;;;;;;;15.52;9.57;;;;;;;;;;5048027;28;20310;-73
2024/01/30 07:52:34;;;;;;;15.27;9.05;;;;;;;;;;5049555;28;20217;-73
2024/01/30 07:55:00;;;;;;;15.35;9.77;;;;;;;;;;5040273;28;20208;-73
2024/01/30 07:57:25;;;;;;;16.38;10.13;;;;;;;;;;5045811;28;20273;-73
2024/01/30 07:59:50;;;;;;;12.35;9.13;;;;;;;;;;5045226;28;20524;-73
2024/01/30 08:02:16;;;;;;;16.98;9.70;;;;;;;;;;5045312;28;20610;-73
2024/01/30 08:04:41;;;;;;;15.90;9.25;;;;;;;;;;5041560;28;20198;-73
2024/01/30 08:07:07;;;;;;;12.80;9.27;;;;;;;;;;5044157;28;20217;-73
2024/01/30 08:09:32;;;;;;;11.88;9.00;;;;;;;;;;5045106;28;20277;-73
2024/01/30 08:11:58;;;;;;;15.50;9.35;;;;;;;;;;5031470;28;20181;-73
2024/01/30 08:14:23;;;;;;;13.40;9.25;;;;;;;;;;5044657;28;20241;-73
2024/01/30 08:16:48;;;;;;;15.63;9.35;;;;;;;;;;5039945;28;20234;-73
2024/01/30 08:19:15;;;;;;;14.05;9.07;;;;;;;;;;5033826;28;20209;-74
2024/01/30 08:21:40;;;;;;;14.63;9.07;;;;;;;;;;5042351;28;20185;-73
2024/01/30 08:24:06;;;;;;;12.27;8.52;;;;;;;;;;5041527;28;20220;-74
2024/01/30 08:26:33;;;;;;;11.45;8.52;;;;;;;;;;5043107;28;20177;-74
2024/01/30 08:28:58;;;;;;;13.43;8.90;;;;;;;;;;5044560;28;20500;-73
2024/01/30 08:31:24;;;;;;;13.00;8.82;;;;;;;;;;5043807;28;20269;-73
2024/01/30 08:33:49;;;;;;;15.00;9.32;;;;;;;;;;5042623;28;20240;-74
2024/01/30 08:36:16;;;;;;;14.02;8.68;;;;;;;;;;5038804;28;20544;-74
2024/01/30 08:38:42;;;;;;;15.18;9.10;;;;;;;;;;5031768;28;20244;-72
2024/01/30 08:41:08;;;;;;;17.95;9.75;;;;;;;;;;5027010;28;20197;-73
2024/01/30 08:43:33;;;;;;;13.38;8.48;;;;;;;;;;5037239;28;20188;-73
2024/01/30 08:45:59;;;;;;;15.00;9.00;;;;;;;;;;5040475;28;20256;-73
2024/01/30 08:48:25;;;;;;;14.00;8.43;;;;;;;;;;5041584;28;20311;-72
2024/01/30 08:50:51;;;;;;;13.77;8.70;;;;;;;;;;5040925;28;20702;-73
2024/01/30 08:53:16;;;;;;;13.93;9.00;;;;;;;;;;5047691;28;20220;-73
2024/01/30 08:55:42;;;;;;;13.07;8.95;;;;;;;;;;5036784;28;20213;-73
2024/01/30 08:58:07;;;;;;;13.68;8.23;;;;;;;;;;5049164;28;20532;-73
2024/01/30 09:00:33;;;;;;;14.10;8.38;;;;;;;;;;5032427;28;20185;-73
2024/01/30 09:02:58;;;;;;;12.23;8.25;;;;;;;;;;5037241;28;20634;-73
2024/01/30 09:05:24;;;;;;;15.63;8.73;;;;;;;;;;5040405;28;20196;-73
2024/01/30 09:07:49;;;;;;;12.23;8.65;;;;;;;;;;5034648;28;20277;-73
2024/01/30 09:10:15;;;;;;;14.77;8.77;;;;;;;;;;5043113;28;20202;-73
2024/01/30 09:12:41;;;;;;;12.48;8.55;;;;;;;;;;5027901;28;20229;-73
2024/01/30 09:15:07;;;;;;;12.20;8.35;;;;;;;;;;5033325;28;20206;-73
2024/01/30 09:17:33;;;;;;;12.25;8.38;;;;;;;;;;5049047;28;20561;-74
2024/01/30 09:19:58;;;;;;;14.73;8.73;;;;;;;;;;5047211;28;20247;-73
2024/01/30 09:22:24;;;;;;;14.18;7.90;;;;;;;;;;5039416;28;20739;-73
2024/01/30 09:24:50;;;;;;;12.18;8.50;;;;;;;;;;5041529;28;20507;-73
2024/01/30 09:27:15;;;;;;;15.93;8.63;;;;;;;;;;5034409;28;20193;-74
2024/01/30 09:29:40;;;;;;;13.02;8.85;;;;;;;;;;5032387;28;20197;-74
2024/01/30 09:32:06;;;;;;;10.48;7.97;;;;;;;;;;5043017;28;20338;-73
2024/01/30 09:34:32;;;;;;;11.05;8.40;;;;;;;;;;5044679;28;20613;-74
2024/01/30 09:36:59;;;;;;;12.80;7.97;;;;;;;;;;5040835;28;20328;-74
2024/01/30 09:39:25;;;;;;;17.35;8.40;;;;;;;;;;5043405;28;20197;-74
2024/01/30 09:42:09;;;;;;;18.85;8.23;;;;;;;;;;5047312;28;20182;-74
2024/01/30 09:44:36;;;;;;;13.57;7.93;;;;;;;;;;5036951;28;20190;-73
2024/01/30 09:47:03;;;;;;;11.23;8.38;;;;;;;;;;5038953;28;20187;-73
2024/01/30 09:49:32;;;;;;;13.88;8.40;;;;;;;;;;5029165;28;20193;-73
2024/01/30 09:51:58;;;;;;;12.38;7.78;;;;;;;;;;5029508;28;20197;-73
2024/01/30 09:54:23;;;;;;;14.15;8.10;;;;;;;;;;5038296;28;20202;-74
2024/01/30 09:56:49;;;;;;;15.70;7.80;;;;;;;;;;5036179;28;20332;-73
2024/01/30 09:59:15;;;;;;;12.75;7.85;;;;;;;;;;5034314;28;20197;-73
2024/01/30 10:01:41;;;;;;;15.27;8.10;;;;;;;;;;5033797;28;20201;-73
2024/01/30 10:04:07;;;;;;;9.90;7.65;;;;;;;;;;5026864;28;20184;-74
2024/01/30 10:06:32;;;;;;;11.32;8.10;;;;;;;;;;5034257;28;20284;-73
2024/01/30 10:08:58;;;;;;;14.75;7.88;;;;;;;;;;5042934;28;20677;-73
2024/01/30 10:11:23;;;;;;;14.23;7.43;;;;;;;;;;5036869;28;20276;-73
2024/01/30 10:13:49;;;;;;;13.50;8.15;;;;;;;;;;5031055;28;20296;-74
2024/01/30 10:16:16;;;;;;;12.43;8.02;;;;;;;;;;5044565;28;20284;-73
2024/01/30 10:18:42;;;;;;;10.80;7.70;;;;;;;;;;5035682;28;20213;-73
2024/01/30 10:21:08;;;;;;;10.20;8.02;;;;;;;;;;5032723;28;20205;-73
2024/01/30 10:23:34;;;;;;;14.02;7.97;;;;;;;;;;5039034;28;20576;-74
2024/01/30 10:25:59;;;;;;;12.43;7.53;;;;;;;;;;5037532;28;20192;-73
2024/01/30 10:28:29;;;;;;;12.52;7.97;;;;;;;;;;5032902;28;20193;-73
2024/01/30 10:31:02;;;;;;;13.90;7.45;;;;;;;;;;5037926;28;20200;-73
2024/01/30 10:33:27;;;;;;;12.00;8.00;;;;;;;;;;5045713;28;20732;-73
2024/01/30 10:35:59;;;;;;;12.02;8.30;;;;;;;;;;5035535;28;20285;-73
2024/01/30 10:38:30;;;;;;;11.70;7.07;;;;;;;;;;5045392;28;20197;-74
2024/01/30 10:41:00;;;;;;;13.38;8.05;;;;;;;;;;5032074;28;20681;-73
2024/01/30 10:43:36;;;;;;;12.07;8.10;;;;;;;;;;5038265;28;20193;-74
2024/01/30 10:46:15;;;;;;;15.60;8.25;;;;;;;;;;5032192;28;20571;-74
2024/01/30 10:48:44;;;;;;;10.10;7.50;;;;;;;;;;5030815;28;20186;-74
2024/01/30 10:51:10;;;;;;;13.05;7.78;;;;;;;;;;5041868;28;20197;-74
2024/01/30 10:53:37;;;;;;;12.30;7.63;;;;;;;;;;5026953;28;20344;-73
2024/01/30 10:56:04;;;;;;;13.10;7.80;;;;;;;;;;5033329;28;20214;-73
2024/01/30 10:58:29;;;;;;;14.32;8.23;;;;;;;;;;5033066;28;21983;-74
2024/01/30 11:00:56;;;;;;;13.13;8.20;;;;;;;;;;5042138;28;20204;-74
2024/01/30 11:03:22;;;;;;;18.42;8.38;;;;;;;;;;5046449;28;20189;-73
2024/01/30 11:05:51;;;;;;;12.57;7.72;;;;;;;;;;5047352;28;20189;-74
2024/01/30 11:08:24;;;;;;;17.13;7.72;;;;;;;;;;5041033;28;20203;-74
2024/01/30 11:10:54;;;;;;;12.10;7.32;;;;;;;;;;5045082;28;20189;-74
2024/01/30 11:13:20;;;;;;;12.82;7.35;;;;;;;;;;5043073;28;20344;-73
2024/01/30 11:15:47;;;;;;;12.18;8.95;;;;;;;;;;5038753;28;20638;-74
2024/01/30 11:18:26;;;;;;;13.63;8.35;;;;;;;;;;5043439;28;20233;-74
2024/01/30 11:20:51;;;;;;;13.30;7.95;;;;;;;;;;5046541;28;20664;-74
2024/01/30 11:23:17;;;;;;;15.68;7.78;;;;;;;;;;5026085;28;20206;-73
2024/01/30 11:25:45;;;;;;;11.85;8.18;;;;;;;;;;5030515;28;20226;-74
2024/01/30 11:28:17;;;;;;;14.13;8.38;;;;;;;;;;5045326;28;20690;-74
2024/01/30 11:30:42;;;;;;;14.93;7.80;;;;;;;;;;5044129;28;20536;-74
2024/01/30 11:33:11;;;;;;;14.93;7.90;;;;;;;;;;5038482;28;20206;-74
2024/01/30 11:35:46;;;;;;;15.40;8.43;;;;;;;;;;5031166;28;20657;-73
2024/01/30 11:38:14;;;;;;;10.70;7.65;;;;;;;;;;5041863;28;20264;-73
2024/01/30 11:40:40;;;;;;;10.93;7.50;;;;;;;;;;5042286;28;20209;-73
2024/01/30 11:43:08;;;;;;;12.57;7.65;;;;;;;;;;5046035;28;20201;-74
2024/01/30 11:45:35;;;;;;;11.70;7.57;;;;;;;;;;5035958;28;20888;-74
2024/01/30 11:48:03;;;;;;;9.98;6.57;;;;;;;;;;5038734;28;20645;-74
2024/01/30 11:50:35;;;;;;;12.40;7.88;;;;;;;;;;5031069;28;20186;-74
2024/01/30 11:53:00;;;;;;;14.88;7.20;;;;;;;;;;5033095;28;20202;-74
2024/01/30 11:55:26;;;;;;;14.85;7.40;;;;;;;;;;5032951;28;20194;-74
2024/01/30 11:57:55;;;;;;;11.90;6.20;;;;;;;;;;5044762;28;20213;-74
2024/01/30 12:00:21;;;;;;;12.20;6.93;;;;;;;;;;5031899;28;20186;-74
2024/01/30 12:02:51;;;;;;;11.40;6.88;;;;;;;;;;5034585;28;20185;-74
2024/01/30 12:05:18;;;;;;;10.77;7.45;;;;;;;;;;5045567;28;20533;-74
2024/01/30 12:07:45;;;;;;;13.57;7.13;;;;;;;;;;5029122;28;20487;-74
2024/01/30 12:10:11;;;;;;;10.10;6.88;;;;;;;;;;5038117;28;20204;-73
2024/01/30 12:12:37;;;;;;;13.45;7.60;;;;;;;;;;5048541;28;20218;-74
2024/01/30 12:15:02;;;;;;;11.95;6.43;;;;;;;;;;5028977;28;20548;-73
2024/01/30 12:17:33;;;;;;;12.23;7.07;;;;;;;;;;5030862;28;20270;-74
2024/01/30 12:20:08;;;;;;;12.52;8.00;;;;;;;;;;5041109;28;20636;-74
2024/01/30 12:22:42;;;;;;;14.18;7.60;;;;;;;;;;5030804;28;20178;-74
2024/01/30 12:25:09;;;;;;;13.07;7.28;;;;;;;;;;5042169;28;20225;-74
2024/01/30 12:27:35;;;;;;;12.27;7.50;;;;;;;;;;5038160;28;20193;-73
2024/01/30 12:30:00;;;;;;;12.82;7.95;;;;;;;;;;5020251;28;20645;-73
2024/01/30 12:32:26;;;;;;;10.80;6.95;;;;;;;;;;5049108;28;20293;-74
2024/01/30 12:34:55;;;;;;;10.40;7.25;;;;;;;;;;5028115;28;20240;-74
2024/01/30 12:37:22;;;;;;;14.50;7.10;;;;;;;;;;5045544;28;20186;-74
2024/01/30 12:39:48;;;;;;;11.88;7.07;;;;;;;;;;5030756;28;20185;-74
2024/01/30 12:42:14;;;;;;;14.15;6.78;;;;;;;;;;5039229;28;20604;-74
2024/01/30 12:44:40;;;;;;;10.38;7.03;;;;;;;;;;5050118;28;20213;-74
2024/01/30 12:47:06;;;;;;;12.10;7.78;;;;;;;;;;5039736;28;20193;-74
2024/01/30 12:49:31;;;;;;;9.80;6.90;;;;;;;;;;5030735;28;20190;-73
2024/01/30 12:51:58;;;;;;;11.73;7.80;;;;;;;;;;5025794;28;20192;-73
2024/01/30 12:54:23;;;;;;;11.50;7.85;;;;;;;;;;5041792;28;20213;-73
2024/01/30 12:56:49;;;;;;;13.98;8.02;;;;;;;;;;5031160;28;20719;-74
2024/01/30 12:59:14;;;;;;;10.98;7.05;;;;;;;;;;5036512;28;20198;-74
2024/01/30 13:01:39;;;;;;;17.88;7.88;;;;;;;;;;5034620;28;20190;-74
2024/01/30 13:04:05;;;;;;;14.27;7.90;;;;;;;;;;5028547;28;20264;-73
2024/01/30 13:06:30;;;;;;;13.32;8.15;;;;;;;;;;5039342;28;20177;-73
2024/01/30 13:08:56;;;;;;;17.95;8.25;;;;;;;;;;5052075;28;20200;-74
2024/01/30 13:11:21;;;;;;;14.80;7.88;;;;;;;;;;5037265;28;20186;-74
2024/01/30 13:13:47;;;;;;;13.45;8.63;;;;;;;;;;5036037;28;20221;-74
2024/01/30 13:16:12;;;;;;;12.80;7.43;;;;;;;;;;5029214;28;20221;-74
2024/01/30 13:18:38;;;;;;;14.25;7.30;;;;;;;;;;5031374;28;20209;-74
2024/01/30 13:21:03;;;;;;;12.93;6.55;;;;;;;;;;5044594;28;20235;-73
2024/01/30 13:23:29;;;;;;;11.00;5.97;;;;;;;;;;5047471;28;20534;-74
2024/01/30 13:25:58;;;;;;;9.75;5.10;;;;;;;;;;5045442;28;20200;-74
2024/01/30 13:28:23;;;;;;;11.52;4.43;;;;;;;;;;5035162;28;20733;-75
2024/01/30 13:30:49;;;;;;;10.63;5.03;;;;;;;;;;5038912;28;20216;-75
2024/01/30 13:33:14;;;;;;;9.40;5.32;;;;;;;;;;5039307;28;20205;-74
2024/01/30 13:35:39;;;;;;;8.60;4.13;;;;;;;;;;5036106;28;20201;-74
2024/01/30 13:38:05;;;;;;;6.93;4.03;;;;;;;;;;5046511;28;20215;-73
2024/01/30 13:40:30;;;;;;;7.40;3.95;;;;;;;;;;5042850;28;20197;-73
2024/01/30 13:42:56;;;;;;;4.43;3.25;;;;;;;;;;5043559;28;20186;-74
2024/01/30 13:45:21;;;;;;;6.68;3.75;;;;;;;;;;5041686;28;20190;-74
2024/01/30 13:47:47;;;;;;;10.77;3.90;;;;;;;;;;5034090;28;20189;-73
2024/01/30 13:50:15;;;;;;;7.50;3.25;;;;;;;;;;5015219;28;20205;-73
2024/01/30 13:52:41;;;;;;;5.95;3.05;;;;;;;;;;5040574;28;20300;-73
2024/01/30 13:55:06;;;;;;;8.90;2.97;;;;;;;;;;5032011;28;20264;-73
2024/01/30 13:57:35;;;;;;;7.30;2.78;;;;;;;;;;5022433;28;20185;-73
2024/01/30 14:00:01;;;;;;;4.85;2.03;;;;;;;;;;5032514;28;20259;-73
2024/01/30 14:02:26;;;;;;;8.18;2.65;;;;;;;;;;5038488;28;20190;-74
2024/01/30 14:04:52;;;;;;;6.70;2.67;;;;;;;;;;5047519;28;20185;-74
2024/01/30 14:07:18;;;;;;;6.28;2.00;;;;;;;;;;5036167;28;20221;-73
2024/01/30 14:09:44;;;;;;;3.17;2.17;;;;;;;;;;5038102;28;20189;-72
2024/01/30 14:12:09;;;;;;;3.20;2.10;;;;;;;;;;5039395;28;20213;-74
2024/01/30 14:14:35;;;;;;;6.50;2.28;;;;;;;;;;5030003;28;20239;-73
2024/01/30 14:17:01;;;;;;;8.50;2.70;;;;;;;;;;5046639;28;20339;-73